This is the latest recevied weather packets stored in our database for station/object DL9LAF-4. If no packets are shown the sender has not sent any weather packets the latest 10 day(s).
| Time | Temp. | Humidity | Pressure | Rain* | Wind** | Luminosity | Snow |
|---|---|---|---|---|---|---|---|
| 1777736154 | 21.67° C | 43% | 991.9 hPa | 0 mm | - | - | - |
| 1777735554 | 22.78° C | 43% | 992 hPa | 0 mm | - | - | - |
| 1777734954 | 23.89° C | 40% | 991.7 hPa | 0 mm | - | - | - |
| 1777734354 | 25° C | 35% | 991.7 hPa | 0 mm | - | - | - |
| 1777733754 | 25.56° C | 32% | 991.9 hPa | 0 mm | - | - | - |
| 1777733154 | 26.11° C | 32% | 991.9 hPa | 0 mm | - | - | - |
| 1777732554 | 26.67° C | 34% | 992 hPa | 0 mm | - | - | - |
| 1777731954 | 26.67° C | 32% | 992.2 hPa | 0 mm | - | - | - |
| 1777731354 | 26.67° C | 34% | 992.2 hPa | 0 mm | - | - | - |
| 1777730754 | 26.67° C | 32% | 992.5 hPa | 0 mm | - | - | - |
| 1777730154 | 26.67° C | 32% | 992.5 hPa | 0 mm | - | - | - |
| 1777729554 | 26.67° C | 33% | 992.5 hPa | 0 mm | - | - | - |
| 1777728954 | 26.67° C | 32% | 992.7 hPa | 0 mm | - | - | - |
| 1777728354 | 25.56° C | 34% | 992.7 hPa | 0 mm | - | - | - |
| 1777727754 | 25.56° C | 33% | 992.7 hPa | 0 mm | - | - | - |
| 1777727154 | 25.56° C | 32% | 993 hPa | 0 mm | - | - | - |
| 1777726554 | 25.56° C | 31% | 993 hPa | 0 mm | - | - | - |
| 1777725954 | 25.56° C | 31% | 993.2 hPa | 0 mm | - | - | - |
| 1777725354 | 25.56° C | 32% | 993.2 hPa | 0 mm | - | - | - |
| 1777724754 | 25° C | 32% | 993.4 hPa | 0 mm | - | - | - |
| 1777724154 | 25° C | 35% | 993.4 hPa | 0 mm | - | - | - |
| 1777723554 | 25° C | 33% | 993.5 hPa | 0 mm | - | - | - |
| 1777722954 | 24.44° C | 36% | 993.5 hPa | 0 mm | - | - | - |
| 1777722354 | 24.44° C | 37% | 993.7 hPa | 0 mm | - | - | - |
| 1777721754 | 23.89° C | 38% | 994 hPa | 0 mm | - | - | - |
* Rain latest hour (hover to see other rain measurements)
** Current wind speed in m/s (hover to see current wind gust speed)